createdAt,value
2023-03-26T00:01:17.376Z,8.75
2023-03-26T00:03:44.673Z,8.72
2023-03-26T00:06:12.461Z,8.71
2023-03-26T00:08:41.125Z,8.69
2023-03-26T00:11:10.071Z,8.68
2023-03-26T00:13:36.660Z,8.67
2023-03-26T00:16:04.394Z,8.67
2023-03-26T00:18:31.406Z,8.67
2023-03-26T00:20:58.912Z,8.67
2023-03-26T00:23:27.714Z,8.66
2023-03-26T00:25:55.021Z,8.63
2023-03-26T00:28:23.599Z,8.62
2023-03-26T00:30:57.367Z,8.59
2023-03-26T00:33:24.368Z,8.56
2023-03-26T00:35:59.202Z,8.55
2023-03-26T00:38:27.806Z,8.54
2023-03-26T00:40:55.295Z,8.53
2023-03-26T00:43:22.977Z,8.50
2023-03-26T00:45:53.175Z,8.49
2023-03-26T00:48:31.329Z,8.47
2023-03-26T00:51:05.986Z,8.43
2023-03-26T00:53:32.888Z,8.41
2023-03-26T00:55:59.810Z,8.39
2023-03-26T00:58:27.627Z,8.38
2023-03-26T01:00:57.415Z,8.36
2023-03-26T01:03:26.680Z,8.37
2023-03-26T01:06:07.027Z,8.37
2023-03-26T01:08:44.837Z,8.37
2023-03-26T01:11:21.790Z,8.37
2023-03-26T01:13:56.495Z,8.39
2023-03-26T01:16:31.208Z,8.39
2023-03-26T01:18:57.901Z,8.39
2023-03-26T01:21:28.266Z,8.41
2023-03-26T01:23:59.130Z,8.42
2023-03-26T01:26:54.546Z,8.42
2023-03-26T01:29:23.829Z,8.43
2023-03-26T01:32:00.965Z,8.41
2023-03-26T01:35:16.188Z,8.40
2023-03-26T01:37:55.830Z,8.38
2023-03-26T01:40:32.965Z,8.35
2023-03-26T01:43:27.699Z,8.34
2023-03-26T01:45:56.435Z,8.32
2023-03-26T01:48:30.239Z,8.31
2023-03-26T01:50:56.769Z,8.31
2023-03-26T01:53:25.526Z,8.30
2023-03-26T01:56:23.260Z,8.30
2023-03-26T01:59:09.775Z,8.30
2023-03-26T02:01:57.218Z,8.30
2023-03-26T02:04:33.248Z,8.27
2023-03-26T02:07:12.805Z,8.28
2023-03-26T02:09:47.903Z,8.28
2023-03-26T02:12:16.206Z,8.29
2023-03-26T02:14:44.386Z,8.30
2023-03-26T02:17:11.270Z,8.30
2023-03-26T02:19:38.978Z,8.30
2023-03-26T02:22:05.504Z,8.30
2023-03-26T02:24:32.011Z,8.29
2023-03-26T02:26:58.540Z,8.28
2023-03-26T02:29:25.118Z,8.27
2023-03-26T02:31:51.653Z,8.25
2023-03-26T02:34:18.281Z,8.25
2023-03-26T02:36:44.850Z,8.24
2023-03-26T02:39:12.233Z,8.22
2023-03-26T02:41:39.089Z,8.19
2023-03-26T02:44:06.198Z,8.17
2023-03-26T02:46:34.009Z,8.17
2023-03-26T02:49:00.619Z,8.17
2023-03-26T02:51:27.166Z,8.16
2023-03-26T02:53:53.728Z,8.16
2023-03-26T02:56:20.533Z,8.15
2023-03-26T02:58:47.054Z,8.12
2023-03-26T03:01:13.768Z,8.09
2023-03-26T03:03:40.297Z,8.07
2023-03-26T03:06:06.938Z,8.06
2023-03-26T03:08:33.464Z,8.03
2023-03-26T03:11:03.117Z,7.99
2023-03-26T03:13:30.114Z,7.97
2023-03-26T03:15:56.833Z,7.97
2023-03-26T03:18:23.651Z,7.95
2023-03-26T03:20:50.259Z,7.92
2023-03-26T03:23:17.296Z,7.90
2023-03-26T03:25:43.823Z,7.86
2023-03-26T03:28:10.573Z,7.82
2023-03-26T03:30:37.423Z,7.77
2023-03-26T03:33:04.354Z,7.73
2023-03-26T03:35:30.953Z,7.69
2023-03-26T03:37:58.331Z,7.64
2023-03-26T03:40:25.602Z,7.57
2023-03-26T03:42:52.406Z,7.51
2023-03-26T03:45:19.283Z,7.45
2023-03-26T03:47:45.862Z,7.41
2023-03-26T03:50:12.430Z,7.36
2023-03-26T03:52:38.981Z,7.31
2023-03-26T03:55:05.897Z,7.25
2023-03-26T03:57:32.839Z,7.21
2023-03-26T03:59:59.395Z,7.16
2023-03-26T04:02:26.869Z,7.12
2023-03-26T04:04:53.657Z,7.06
2023-03-26T04:07:20.256Z,7.01
2023-03-26T04:09:46.749Z,6.98
2023-03-26T04:12:14.096Z,6.94
2023-03-26T04:14:40.649Z,6.92
2023-03-26T04:17:07.144Z,6.90
2023-03-26T04:19:33.700Z,6.87
2023-03-26T04:22:00.485Z,6.85
2023-03-26T04:24:26.981Z,6.84
2023-03-26T04:26:53.539Z,6.82
2023-03-26T04:29:20.062Z,6.82
2023-03-26T04:31:46.625Z,6.78
2023-03-26T04:34:23.522Z,6.74
2023-03-26T04:36:51.056Z,6.72
2023-03-26T04:39:17.931Z,6.69
2023-03-26T04:41:44.434Z,6.67
2023-03-26T04:44:10.997Z,6.63
2023-03-26T04:46:37.623Z,6.61
2023-03-26T04:49:04.192Z,6.59
2023-03-26T04:51:37.550Z,6.58
2023-03-26T04:54:05.917Z,6.60
2023-03-26T04:56:51.009Z,6.63
2023-03-26T04:59:22.376Z,6.70
2023-03-26T05:01:48.988Z,6.79
2023-03-26T05:04:15.615Z,6.88
2023-03-26T05:06:42.244Z,6.98
2023-03-26T05:09:09.092Z,7.06
2023-03-26T05:11:35.569Z,7.16
2023-03-26T05:14:02.144Z,7.25
2023-03-26T05:16:29.464Z,7.35
2023-03-26T05:18:55.982Z,7.45
2023-03-26T05:21:22.503Z,7.56
2023-03-26T05:23:49.205Z,7.69
2023-03-26T05:26:15.727Z,7.80
2023-03-26T05:28:42.315Z,7.90
2023-03-26T05:31:10.081Z,8.02
2023-03-26T05:33:37.192Z,8.14
2023-03-26T05:36:09.650Z,8.26
2023-03-26T05:38:36.828Z,8.38
2023-03-26T05:41:06.940Z,8.49
2023-03-26T05:43:33.846Z,8.62
2023-03-26T05:46:00.417Z,8.74
2023-03-26T05:48:27.981Z,8.86
2023-03-26T05:50:56.492Z,8.94
2023-03-26T05:53:25.485Z,8.99
2023-03-26T05:55:52.159Z,9.07
2023-03-26T05:58:20.959Z,9.16
2023-03-26T06:00:47.610Z,9.25
2023-03-26T06:03:15.133Z,9.35
2023-03-26T06:05:42.286Z,9.44
2023-03-26T06:08:08.982Z,9.51
2023-03-26T06:10:38.808Z,9.56
2023-03-26T06:13:05.918Z,9.59
2023-03-26T06:15:32.493Z,9.61
2023-03-26T06:17:59.270Z,9.65
2023-03-26T06:20:25.995Z,9.71
2023-03-26T06:22:52.532Z,9.77
2023-03-26T06:25:19.357Z,9.85
2023-03-26T06:27:45.832Z,9.91
2023-03-26T06:30:12.890Z,9.96
2023-03-26T06:32:39.448Z,10.04
2023-03-26T06:35:08.976Z,10.12
2023-03-26T06:37:35.687Z,10.22
2023-03-26T06:40:02.217Z,10.31
2023-03-26T06:43:06.672Z,10.38
2023-03-26T06:45:15.447Z,10.47
2023-03-26T06:47:42.326Z,10.53
2023-03-26T06:50:10.739Z,10.60
2023-03-26T06:52:37.549Z,10.66
2023-03-26T06:55:06.268Z,10.72
2023-03-26T06:57:32.932Z,10.82
2023-03-26T06:59:59.519Z,10.90
2023-03-26T07:02:26.270Z,10.99
2023-03-26T07:04:52.838Z,11.09
2023-03-26T07:07:19.621Z,11.21
2023-03-26T07:09:46.209Z,11.32
2023-03-26T07:12:12.834Z,11.42
2023-03-26T07:14:39.382Z,11.52
2023-03-26T07:17:05.958Z,11.64
2023-03-26T07:19:33.240Z,11.76
2023-03-26T07:22:00.160Z,11.89
2023-03-26T07:24:27.369Z,12.01
2023-03-26T07:27:12.538Z,12.14
2023-03-26T07:29:48.743Z,12.22
2023-03-26T07:32:23.984Z,12.23
2023-03-26T07:35:19.216Z,12.20
2023-03-26T07:37:57.865Z,12.13
2023-03-26T07:40:48.827Z,12.06
2023-03-26T07:43:37.259Z,12.05
2023-03-26T07:46:04.374Z,12.05
2023-03-26T07:49:00.237Z,12.12
2023-03-26T07:51:27.256Z,12.23
2023-03-26T07:53:54.050Z,12.38
2023-03-26T07:56:29.365Z,12.56
2023-03-26T07:59:24.418Z,12.79
2023-03-26T08:02:09.882Z,13.01
2023-03-26T08:05:06.433Z,13.16
2023-03-26T08:07:35.714Z,13.19
2023-03-26T08:10:21.093Z,13.18
2023-03-26T08:12:50.854Z,13.22
2023-03-26T08:15:41.569Z,13.34
2023-03-26T08:18:08.927Z,13.51
2023-03-26T08:20:39.356Z,13.57
2023-03-26T08:23:14.114Z,13.56
2023-03-26T08:25:52.785Z,13.62
2023-03-26T08:28:35.358Z,13.77
2023-03-26T08:31:02.130Z,13.86
2023-03-26T08:33:30.259Z,13.87
2023-03-26T08:35:56.842Z,13.87
2023-03-26T08:38:23.757Z,13.81
2023-03-26T08:41:07.692Z,13.81
2023-03-26T08:44:12.053Z,13.84
2023-03-26T08:47:20.205Z,13.85
2023-03-26T08:50:18.985Z,13.87
2023-03-26T08:53:07.097Z,13.98
2023-03-26T08:55:55.642Z,14.12
2023-03-26T08:59:06.955Z,14.21
2023-03-26T09:01:58.072Z,14.32
2023-03-26T09:04:49.271Z,14.45
2023-03-26T09:07:40.597Z,14.59
2023-03-26T09:10:10.136Z,14.76
2023-03-26T09:12:36.672Z,14.94
2023-03-26T09:15:06.011Z,15.12
2023-03-26T09:18:05.245Z,15.24
2023-03-26T09:21:02.261Z,15.41
2023-03-26T09:23:51.460Z,15.65
2023-03-26T09:26:24.116Z,15.89
2023-03-26T09:29:11.802Z,16.13
2023-03-26T09:31:38.305Z,16.50
2023-03-26T09:34:23.065Z,16.77
2023-03-26T09:37:07.860Z,17.01
2023-03-26T09:39:39.126Z,17.17
2023-03-26T09:42:29.512Z,17.44
2023-03-26T09:45:17.942Z,17.57
2023-03-26T09:47:47.138Z,17.60
2023-03-26T09:50:38.551Z,17.68
2023-03-26T09:53:33.591Z,17.66
2023-03-26T09:56:22.184Z,17.67
2023-03-26T09:58:51.469Z,17.61
2023-03-26T10:01:20.811Z,17.59
2023-03-26T10:04:02.340Z,17.70
2023-03-26T10:06:36.379Z,17.74
2023-03-26T10:09:07.661Z,18.04
2023-03-26T10:12:02.082Z,18.14
2023-03-26T10:14:46.664Z,18.60
2023-03-26T10:17:22.175Z,19.17
2023-03-26T10:19:54.783Z,18.98
2023-03-26T10:22:33.615Z,18.57
2023-03-26T10:25:16.149Z,18.16
2023-03-26T10:28:03.042Z,17.76
2023-03-26T10:30:47.500Z,17.42
2023-03-26T10:33:41.944Z,17.07
2023-03-26T10:36:30.035Z,16.54
2023-03-26T10:39:37.316Z,15.84
2023-03-26T10:42:31.478Z,14.90
2023-03-26T10:45:26.114Z,13.99
2023-03-26T10:48:06.526Z,13.26
2023-03-26T10:50:51.959Z,13.00
2023-03-26T10:53:40.276Z,13.61
2023-03-26T10:56:35.055Z,14.40
2023-03-26T10:59:12.092Z,17.61
2023-03-26T11:02:17.543Z,20.46
2023-03-26T11:05:49.241Z,23.89
2023-03-26T11:08:31.721Z,27.26
2023-03-26T11:11:15.038Z,26.07
2023-03-26T11:13:56.705Z,24.07
2023-03-26T11:16:55.351Z,22.66
2023-03-26T11:19:40.503Z,21.29
2023-03-26T11:22:41.704Z,20.09
2023-03-26T11:25:45.735Z,18.99
2023-03-26T11:29:03.743Z,17.94
2023-03-26T11:31:59.094Z,17.35
2023-03-26T11:34:32.945Z,17.78
2023-03-26T11:37:04.239Z,18.48
2023-03-26T11:39:34.599Z,18.60
2023-03-26T11:42:12.164Z,18.09
2023-03-26T11:44:45.078Z,17.57
2023-03-26T11:47:15.667Z,17.14
2023-03-26T11:49:45.541Z,16.97
2023-03-26T11:52:15.511Z,17.17
2023-03-26T11:54:42.125Z,17.36
2023-03-26T11:57:16.103Z,17.51
2023-03-26T11:59:56.518Z,17.58
2023-03-26T12:02:37.881Z,17.53
2023-03-26T12:05:21.368Z,17.38
2023-03-26T12:07:55.646Z,17.27
2023-03-26T12:10:43.390Z,17.23
2023-03-26T12:13:29.907Z,17.27
2023-03-26T12:16:06.867Z,17.28
2023-03-26T12:18:33.969Z,17.27
2023-03-26T12:21:09.478Z,17.19
2023-03-26T12:23:51.116Z,17.12
2023-03-26T12:26:18.699Z,17.00
2023-03-26T12:28:50.124Z,16.97
2023-03-26T12:31:19.050Z,17.02
2023-03-26T12:34:03.765Z,17.04
2023-03-26T12:36:33.151Z,17.09
2023-03-26T12:39:16.748Z,17.22
2023-03-26T12:44:42.225Z,17.48
2023-03-26T12:44:58.975Z,17.75
2023-03-26T12:48:00.460Z,18.03
2023-03-26T12:50:17.899Z,18.29
2023-03-26T12:53:27.579Z,18.34
2023-03-26T12:56:19.016Z,18.37
2023-03-26T12:59:17.255Z,18.42
2023-03-26T13:01:54.765Z,18.41
2023-03-26T13:04:49.225Z,18.36
2023-03-26T13:07:40.443Z,18.34
2023-03-26T13:10:28.918Z,18.30
2023-03-26T13:13:18.117Z,18.23
2023-03-26T13:15:52.361Z,18.11
2023-03-26T13:18:49.167Z,18.00
2023-03-26T13:21:18.689Z,17.89
2023-03-26T13:24:00.812Z,17.84
2023-03-26T13:26:51.701Z,17.85
2023-03-26T13:29:36.753Z,17.82
2023-03-26T13:32:12.103Z,17.84
2023-03-26T13:34:47.905Z,17.83
2023-03-26T13:37:18.568Z,17.69
2023-03-26T13:40:00.270Z,17.59
2023-03-26T13:42:45.191Z,17.56
2023-03-26T13:45:13.974Z,17.58
2023-03-26T13:47:48.985Z,17.67
2023-03-26T13:50:25.852Z,17.75
2023-03-26T13:53:27.220Z,17.76
2023-03-26T13:55:57.896Z,17.73
2023-03-26T13:58:34.354Z,17.69
2023-03-26T14:01:22.356Z,17.64
2023-03-26T14:04:11.927Z,17.59
2023-03-26T14:07:01.408Z,17.55
2023-03-26T14:09:40.683Z,17.56
2023-03-26T14:12:22.218Z,17.59
2023-03-26T14:14:55.873Z,17.66
2023-03-26T14:17:25.144Z,17.75
2023-03-26T14:20:00.764Z,17.86
2023-03-26T14:22:42.941Z,18.18
2023-03-26T14:25:47.291Z,18.30
2023-03-26T14:28:51.124Z,18.28
2023-03-26T14:32:02.422Z,18.63
2023-03-26T14:34:55.506Z,19.84
2023-03-26T14:37:34.065Z,21.33
2023-03-26T14:40:22.244Z,21.95
2023-03-26T14:43:20.834Z,21.95
2023-03-26T14:46:09.279Z,21.79
2023-03-26T14:49:01.030Z,21.63
2023-03-26T14:51:36.479Z,21.31
2023-03-26T14:54:08.624Z,21.08
2023-03-26T14:57:04.607Z,20.94
2023-03-26T14:59:58.388Z,20.69
2023-03-26T15:02:25.005Z,20.39
2023-03-26T15:04:54.456Z,20.14
2023-03-26T15:07:47.492Z,19.93
2023-03-26T15:10:41.114Z,19.63
2023-03-26T15:13:54.077Z,19.36
2023-03-26T15:17:02.370Z,19.12
2023-03-26T15:19:53.941Z,18.94
2023-03-26T15:22:29.225Z,18.86
2023-03-26T15:25:01.601Z,18.78
2023-03-26T15:27:46.801Z,18.65
2023-03-26T15:30:55.214Z,18.55
2023-03-26T15:34:00.481Z,18.40
2023-03-26T15:36:59.142Z,18.19
2023-03-26T15:39:59.056Z,17.94
2023-03-26T15:42:32.507Z,17.80
2023-03-26T15:45:20.733Z,17.74
2023-03-26T15:48:07.586Z,17.66
2023-03-26T15:50:57.906Z,17.54
2023-03-26T15:53:24.577Z,17.52
2023-03-26T15:56:13.649Z,17.57
2023-03-26T15:58:59.459Z,17.72
2023-03-26T16:01:32.521Z,17.61
2023-03-26T16:04:14.557Z,17.50
2023-03-26T16:06:59.926Z,17.65
2023-03-26T16:09:38.758Z,17.76
2023-03-26T16:12:17.234Z,17.65
2023-03-26T16:14:43.833Z,17.42
2023-03-26T16:17:19.464Z,17.19
2023-03-26T16:19:45.937Z,17.00
2023-03-26T16:22:34.927Z,16.79
2023-03-26T16:25:26.897Z,16.52
2023-03-26T16:28:26.382Z,16.31
2023-03-26T16:31:10.690Z,16.11
2023-03-26T16:34:17.630Z,15.92
2023-03-26T16:36:48.148Z,15.77
2023-03-26T16:39:22.364Z,15.65
2023-03-26T16:41:55.127Z,15.53
2023-03-26T16:44:40.260Z,15.41
2023-03-26T16:47:06.664Z,15.30
2023-03-26T16:49:45.481Z,15.21
2023-03-26T16:52:22.060Z,15.12
2023-03-26T16:55:03.882Z,15.02
2023-03-26T16:57:50.009Z,14.93
2023-03-26T17:00:28.758Z,14.84
2023-03-26T17:03:03.136Z,14.75
2023-03-26T17:05:54.595Z,14.67
2023-03-26T17:08:35.477Z,14.58
2023-03-26T17:11:16.008Z,14.51
2023-03-26T17:14:04.056Z,14.45
2023-03-26T17:16:42.497Z,14.37
2023-03-26T17:19:24.518Z,14.31
2023-03-26T17:22:05.916Z,14.26
2023-03-26T17:24:39.498Z,14.21
2023-03-26T17:27:28.920Z,14.17
2023-03-26T17:30:09.033Z,14.14
2023-03-26T17:32:59.021Z,14.11
2023-03-26T17:35:50.838Z,14.07
2023-03-26T17:38:17.377Z,14.04
2023-03-26T17:40:55.904Z,14.00
2023-03-26T17:43:44.568Z,13.97
2023-03-26T17:46:41.264Z,13.95
2023-03-26T17:49:17.935Z,13.92
2023-03-26T17:51:52.613Z,13.89
2023-03-26T17:54:24.450Z,13.87
2023-03-26T17:56:53.031Z,13.85
2023-03-26T17:59:22.724Z,13.83
2023-03-26T18:01:57.426Z,13.81
2023-03-26T18:04:33.539Z,13.80
2023-03-26T18:07:27.383Z,13.79
2023-03-26T18:10:15.320Z,13.78
2023-03-26T18:12:54.183Z,13.76
2023-03-26T18:15:30.538Z,13.74
2023-03-26T18:18:09.294Z,13.74
2023-03-26T18:20:36.718Z,13.74
2023-03-26T18:23:12.653Z,13.75
2023-03-26T18:25:39.337Z,13.75
2023-03-26T18:28:05.848Z,13.76
2023-03-26T18:30:32.424Z,13.76
2023-03-26T18:33:11.145Z,13.76
2023-03-26T18:35:46.299Z,13.77
2023-03-26T18:38:18.793Z,13.77
2023-03-26T18:41:02.298Z,13.75
2023-03-26T18:43:34.687Z,13.74
2023-03-26T18:46:03.649Z,13.71
2023-03-26T18:48:30.398Z,13.69
2023-03-26T18:51:00.962Z,13.69
2023-03-26T18:53:38.942Z,13.68
2023-03-26T18:56:29.529Z,13.67
2023-03-26T18:58:59.063Z,13.65
2023-03-26T19:01:27.751Z,13.63
2023-03-26T19:03:54.607Z,13.61
2023-03-26T19:06:21.905Z,13.59
2023-03-26T19:08:49.014Z,13.56
2023-03-26T19:11:17.249Z,13.55
2023-03-26T19:13:43.789Z,13.53
2023-03-26T19:16:40.735Z,13.53
2023-03-26T19:19:07.754Z,13.52
2023-03-26T19:21:36.114Z,13.51
2023-03-26T19:24:04.250Z,13.51
2023-03-26T19:26:31.094Z,13.51
2023-03-26T19:28:58.281Z,13.51
2023-03-26T19:31:26.461Z,13.51
2023-03-26T19:34:00.334Z,13.53
2023-03-26T19:36:29.824Z,13.53
2023-03-26T19:38:59.350Z,13.54
2023-03-26T19:41:38.161Z,13.54
2023-03-26T19:44:20.715Z,13.54
2023-03-26T19:46:53.624Z,13.53
2023-03-26T19:49:41.119Z,13.52
2023-03-26T19:52:18.281Z,13.50
2023-03-26T19:55:00.739Z,13.48
2023-03-26T19:57:32.144Z,13.47
2023-03-26T19:59:59.350Z,13.46
2023-03-26T20:02:27.432Z,13.46
2023-03-26T20:04:54.008Z,13.45
2023-03-26T20:07:35.813Z,13.42
2023-03-26T20:10:04.671Z,13.39
2023-03-26T20:12:31.187Z,13.37
2023-03-26T20:14:57.730Z,13.34
2023-03-26T20:17:24.191Z,13.33
2023-03-26T20:19:50.649Z,13.30
2023-03-26T20:22:18.921Z,13.27
2023-03-26T20:24:45.434Z,13.25
2023-03-26T20:27:11.996Z,13.22
2023-03-26T20:29:38.490Z,13.19
2023-03-26T20:32:06.891Z,13.17
2023-03-26T20:34:33.327Z,13.14
2023-03-26T20:37:01.222Z,13.09
2023-03-26T20:39:28.032Z,13.06
2023-03-26T20:41:55.174Z,13.03
2023-03-26T20:44:22.066Z,13.01
2023-03-26T20:46:50.228Z,12.98
2023-03-26T20:49:17.040Z,12.97
2023-03-26T20:51:44.125Z,12.91
2023-03-26T20:54:20.137Z,12.86
2023-03-26T20:56:47.230Z,12.83
2023-03-26T20:59:18.200Z,12.79
2023-03-26T21:01:45.769Z,12.75
2023-03-26T21:04:12.391Z,12.71
2023-03-26T21:06:38.973Z,12.68
2023-03-26T21:09:05.992Z,12.63
2023-03-26T21:11:55.313Z,12.61
2023-03-26T21:14:25.720Z,12.60
2023-03-26T21:16:52.680Z,12.61
2023-03-26T21:19:19.481Z,12.61
2023-03-26T21:22:03.323Z,12.60
2023-03-26T21:24:41.976Z,12.60
2023-03-26T21:27:27.339Z,12.58
2023-03-26T21:29:55.323Z,12.56
2023-03-26T21:32:22.876Z,12.55
2023-03-26T21:34:58.751Z,12.53
2023-03-26T21:37:26.538Z,12.51
2023-03-26T21:39:53.323Z,12.48
2023-03-26T21:42:20.055Z,12.44
2023-03-26T21:44:46.839Z,12.40
2023-03-26T21:47:13.832Z,12.35
2023-03-26T21:49:40.561Z,12.30
2023-03-26T21:52:07.588Z,12.25
2023-03-26T21:54:34.373Z,12.21
2023-03-26T21:57:22.621Z,12.18
2023-03-26T22:00:06.320Z,12.11
2023-03-26T22:02:55.755Z,12.04
2023-03-26T22:05:54.565Z,11.97
2023-03-26T22:08:36.456Z,11.90
2023-03-26T22:11:02.987Z,11.85
2023-03-26T22:13:29.482Z,11.81
2023-03-26T22:15:55.992Z,11.79
2023-03-26T22:18:22.597Z,11.79
2023-03-26T22:20:49.504Z,11.80
2023-03-26T22:23:16.406Z,11.79
2023-03-26T22:25:42.958Z,11.80
2023-03-26T22:28:09.630Z,11.79
2023-03-26T22:30:36.096Z,11.76
2023-03-26T22:33:02.652Z,11.72
2023-03-26T22:35:29.168Z,11.71
2023-03-26T22:38:00.904Z,11.64
2023-03-26T22:40:27.817Z,11.58
2023-03-26T22:42:54.337Z,11.55
2023-03-26T22:45:20.872Z,11.52
2023-03-26T22:47:47.429Z,11.47
2023-03-26T22:50:14.015Z,11.42
2023-03-26T22:52:40.705Z,11.36
2023-03-26T22:55:08.596Z,11.30
2023-03-26T22:57:35.129Z,11.24
2023-03-26T23:00:01.652Z,11.15
2023-03-26T23:02:28.144Z,11.07
2023-03-26T23:04:54.795Z,11.02
2023-03-26T23:07:21.328Z,10.97
2023-03-26T23:09:47.807Z,10.93
2023-03-26T23:12:14.284Z,10.90
2023-03-26T23:14:40.767Z,10.87
2023-03-26T23:17:07.270Z,10.82
2023-03-26T23:19:33.752Z,10.78
2023-03-26T23:22:00.263Z,10.73
2023-03-26T23:24:26.720Z,10.70
2023-03-26T23:26:53.323Z,10.65
2023-03-26T23:29:20.034Z,10.61
2023-03-26T23:31:46.708Z,10.58
2023-03-26T23:34:13.279Z,10.55
2023-03-26T23:36:39.795Z,10.50
2023-03-26T23:39:06.263Z,10.44
2023-03-26T23:41:32.763Z,10.41
2023-03-26T23:43:59.246Z,10.38
2023-03-26T23:46:28.209Z,10.34
2023-03-26T23:48:54.732Z,10.29
2023-03-26T23:51:21.852Z,10.25
2023-03-26T23:53:49.513Z,10.20
2023-03-26T23:56:16.556Z,10.17
2023-03-26T23:58:43.035Z,10.15
